Providence, Rhode Island
Traffic Map
Current Weather Conditions
Providence, Rhode Island
Few Clouds
Few Clouds

Feels Like: -2°
Wind Chill: -2° Ceiling: Unl
Heat Index: Visibility: 10mi
Dew Point: -4° Wind: 7mph
Humidity: 67% Direction: 290° (WNW)
Pressure: 29.86in Gusts: 0mph
Raw Report DataKPVD 090151Z 29006KT 10SM FEW060 02/M04 A2986 RMK AO2 SLP112 T00171039
Traffic Incident Summary
Active as of:
Severity:
Category:
InformationThere was an issue retrieving the traffic information for this location. Please try a different location or try again shortly.
Advertisements
Track Severe Weather on mobile